Time;durP1;ratioP1;P1;durP2;ratioP2;P2;SDS_P1;SDS_P2;PMS_P1;PMS_P2;Temp;Humidity;BMP_temperature;BMP_pressure;BME280_temperature;BME280_humidity;BME280_pressure;Samples;Min_cycle;Max_cycle;Signal;HPM_P1;HPM_P2
2023/04/03 00:00:37;;;;;;;;;62.00;43.00;;;;;5.68;79.21;102599.22;5117787;27;46635;-64
2023/04/03 00:03:02;;;;;;;;;56.33;42.67;;;;;5.68;79.69;102596.63;5117630;27;45411;-64
2023/04/03 00:05:28;;;;;;;;;53.67;42.33;;;;;5.71;79.53;102593.22;5118398;27;45284;-64
2023/04/03 00:07:53;;;;;;;;;52.67;42.00;;;;;5.64;79.55;102586.91;5118434;27;45321;-64
2023/04/03 00:10:19;;;;;;;;;48.00;41.00;;;;;5.67;79.68;102588.75;5115980;27;45500;-65
2023/04/03 00:12:44;;;;;;;;;50.00;41.33;;;;;5.69;79.50;102595.78;5118049;27;45330;-65
2023/04/03 00:15:11;;;;;;;;;56.67;44.67;;;;;5.68;79.60;102601.84;5118094;27;45445;-65
2023/04/03 00:17:36;;;;;;;;;60.00;45.00;;;;;5.52;79.24;102578.75;5118549;27;45477;-65
2023/04/03 00:20:03;;;;;;;;;61.00;46.00;;;;;5.56;79.09;102596.28;5117728;27;46106;-65
2023/04/03 00:22:28;;;;;;;;;59.00;48.00;;;;;5.49;80.11;102597.84;5118155;27;45551;-65
2023/04/03 00:24:54;;;;;;;;;60.33;44.33;;;;;5.53;79.54;102598.78;5117957;27;45500;-65
2023/04/03 00:27:20;;;;;;;;;58.67;46.67;;;;;5.46;80.21;102591.63;5118045;27;45447;-65
2023/04/03 00:29:45;;;;;;;;;55.33;46.00;;;;;5.48;79.22;102595.19;5117950;27;47282;-65
2023/04/03 00:32:10;;;;;;;;;64.00;50.67;;;;;5.49;80.40;102602.16;5117912;27;45494;-65
2023/04/03 00:34:36;;;;;;;;;60.33;48.00;;;;;5.47;80.57;102594.28;5118049;27;45420;-65
2023/04/03 00:37:01;;;;;;;;;67.67;52.00;;;;;5.56;80.21;102602.41;5118226;27;45407;-65
2023/04/03 00:39:26;;;;;;;;;59.67;47.00;;;;;5.58;80.37;102608.53;5117410;27;46304;-66
2023/04/03 00:41:52;;;;;;;;;56.33;47.00;;;;;5.57;80.18;102606.75;5117675;27;45492;-65
2023/04/03 00:44:35;;;;;;;;;65.33;51.33;;;;;5.58;80.03;102605.06;5124966;27;45251;-65
2023/04/03 00:47:03;;;;;;;;;68.67;52.33;;;;;5.58;80.43;102605.06;5125628;27;45354;-65
2023/04/03 00:49:29;;;;;;;;;69.33;52.33;;;;;5.48;80.60;102596.06;5121891;27;46838;-65
2023/04/03 00:51:57;;;;;;;;;64.67;53.00;;;;;5.55;80.56;102602.34;5125529;27;45453;-65
2023/04/03 00:54:22;;;;;;;;;62.67;49.33;;;;;5.51;80.43;102603.97;5117121;27;45329;-65
2023/04/03 00:56:50;;;;;;;;;69.67;52.33;;;;;5.48;80.76;102600.41;5115820;27;45310;-65
2023/04/03 00:59:25;;;;;;;;;72.00;52.67;;;;;5.51;80.65;102610.94;5121019;27;46529;-65
2023/04/03 01:01:52;;;;;;;;;63.67;52.00;;;;;5.22;80.34;102570.06;5131202;27;45370;-66
2023/04/03 01:04:42;;;;;;;;;69.00;54.00;;;;;5.45;80.74;102618.63;5121503;27;45268;-66
2023/04/03 01:07:11;;;;;;;;;64.67;48.33;;;;;5.48;80.66;102611.75;5121155;27;45469;-66
2023/04/03 01:09:37;;;;;;;;;62.67;47.67;;;;;5.43;80.59;102615.94;5119864;27;46133;-66
2023/04/03 01:12:22;;;;;;;;;63.67;47.00;;;;;5.38;80.25;102610.59;5119814;27;45542;-65
2023/04/03 01:15:00;;;;;;;;;61.00;47.00;;;;;5.31;80.79;102608.63;5120107;27;45398;-65
2023/04/03 01:17:32;;;;;;;;;57.67;46.00;;;;;5.27;80.89;102606.78;5121658;27;45398;-65
2023/04/03 01:20:31;;;;;;;;;60.33;47.33;;;;;5.22;80.66;102614.47;5120963;27;46852;-65
2023/04/03 01:23:06;;;;;;;;;65.00;48.67;;;;;5.22;81.38;102613.59;5118445;27;45495;-65
2023/04/03 01:25:33;;;;;;;;;63.67;48.00;;;;;5.12;81.35;102601.97;5118299;27;45568;-65
2023/04/03 01:27:58;;;;;;;;;55.33;46.67;;;;;5.21;81.10;102612.72;5120965;27;45177;-65
2023/04/03 01:30:30;;;;;;;;;59.00;43.33;;;;;5.12;80.89;102599.38;5120114;27;46219;-65
2023/04/03 01:32:56;;;;;;;;;61.67;48.00;;;;;5.21;81.81;102606.59;5118549;27;47931;-65
2023/04/03 01:35:22;;;;;;;;;64.00;48.67;;;;;5.19;82.01;102606.56;5120720;27;45276;-65
2023/04/03 01:37:47;;;;;;;;;53.00;43.67;;;;;5.19;81.68;102613.50;5120923;27;45223;-65
2023/04/03 01:40:13;;;;;;;;;59.00;46.00;;;;;5.19;81.68;102597.84;5119915;27;46421;-65
2023/04/03 01:42:38;;;;;;;;;58.33;48.00;;;;;5.07;81.19;102595.75;5118981;27;45225;-65
2023/04/03 01:45:04;;;;;;;;;66.33;49.67;;;;;5.10;81.71;102603.69;5120765;27;45293;-65
2023/04/03 01:47:29;;;;;;;;;61.67;48.00;;;;;5.08;81.69;102599.25;5120659;27;45338;-66
2023/04/03 01:49:55;;;;;;;;;60.67;48.00;;;;;5.14;81.67;102604.63;5132033;27;46148;-66
2023/04/03 01:52:20;;;;;;;;;57.67;45.33;;;;;5.11;81.46;102600.22;5121626;27;45559;-65
2023/04/03 01:54:45;;;;;;;;;61.67;47.67;;;;;5.13;81.67;102606.38;5120905;27;45408;-66
2023/04/03 01:57:11;;;;;;;;;59.00;42.00;;;;;4.94;81.64;102572.72;5120262;27;45461;-66
2023/04/03 01:59:36;;;;;;;;;52.00;40.33;;;;;5.14;81.52;102608.16;5119650;27;47033;-65
2023/04/03 02:02:02;;;;;;;;;51.33;39.33;;;;;5.16;81.22;102606.47;5118204;27;45319;-65
2023/04/03 02:04:27;;;;;;;;;56.00;45.67;;;;;5.15;81.15;102607.28;5119771;27;45347;-65
2023/04/03 02:06:52;;;;;;;;;53.00;40.33;;;;;5.13;80.84;102602.88;5127810;27;45470;-65
2023/04/03 02:09:18;;;;;;;;;57.67;44.00;;;;;5.09;81.34;102609.72;5140292;27;46387;-65
2023/04/03 02:11:43;;;;;;;;;54.67;42.33;;;;;5.10;81.55;102605.38;5124679;27;45390;-65
2023/04/03 02:14:08;;;;;;;;;54.67;43.00;;;;;5.05;81.13;102605.25;5117761;27;46874;-65
2023/04/03 02:16:34;;;;;;;;;50.67;42.00;;;;;4.98;81.39;102598.06;5120024;27;45441;-65
2023/04/03 02:18:59;;;;;;;;;57.00;46.67;;;;;5.00;81.81;102614.69;5120243;27;46397;-65
2023/04/03 02:21:24;;;;;;;;;50.33;42.67;;;;;4.99;81.81;102602.47;5119237;27;45500;-65
2023/04/03 02:23:50;;;;;;;;;52.67;41.67;;;;;4.98;81.56;102606.81;5119491;27;45385;-65
2023/04/03 02:26:16;;;;;;;;;46.33;39.33;;;;;4.98;81.46;102616.34;5119749;27;45415;-65
2023/04/03 02:28:42;;;;;;;;;48.33;39.67;;;;;4.91;80.86;102609.16;5119184;27;46166;-65
2023/04/03 02:31:09;;;;;;;;;53.33;40.33;;;;;4.87;81.29;102606.47;5119833;27;45443;-65
2023/04/03 02:33:38;;;;;;;;;52.00;39.67;;;;;4.85;81.33;102612.47;5117560;27;45272;-65
2023/04/03 02:36:05;;;;;;;;;44.00;38.00;;;;;4.93;81.56;102621.44;5119570;27;45306;-65
2023/04/03 02:38:31;;;;;;;;;45.00;38.33;;;;;4.90;81.01;102621.34;5118459;27;47769;-65
2023/04/03 02:41:04;;;;;;;;;41.67;36.00;;;;;4.90;81.05;102623.06;5118616;27;46973;-65
2023/04/03 02:43:30;;;;;;;;;47.67;36.33;;;;;4.83;80.98;102612.41;5117936;27;45522;-65
2023/04/03 02:45:55;;;;;;;;;31.67;27.33;;;;;4.92;80.08;102630.09;5119808;27;45223;-65
2023/04/03 02:48:20;;;;;;;;;42.67;35.33;;;;;4.84;80.29;102621.16;5119504;27;46633;-65
2023/04/03 02:50:46;;;;;;;;;36.67;32.67;;;;;4.87;80.86;102616.91;5119271;27;45451;-65
2023/04/03 02:53:11;;;;;;;;;31.67;30.00;;;;;4.91;79.56;102624.81;5118079;27;45185;-65
2023/04/03 02:55:37;;;;;;;;;35.33;33.33;;;;;4.83;80.18;102616.75;5127710;27;45516;-65
2023/04/03 02:58:03;;;;;;;;;43.00;35.33;;;;;4.49;79.93;102564.41;5122445;27;45625;-65
2023/04/03 03:00:29;;;;;;;;;37.33;32.67;;;;;4.81;80.65;102614.09;5118983;27;45235;-65
2023/04/03 03:02:54;;;;;;;;;35.67;30.00;;;;;4.84;80.62;102624.63;5118200;27;45678;-65
2023/04/03 03:05:19;;;;;;;;;36.00;32.00;;;;;4.86;80.49;102628.16;5117365;27;45359;-65
2023/04/03 03:07:45;;;;;;;;;50.00;35.67;;;;;4.64;80.22;102586.59;5117385;27;45424;-65
2023/04/03 03:10:10;;;;;;;;;37.67;36.00;;;;;4.84;79.14;102624.63;5119763;27;45342;-65
2023/04/03 03:12:35;;;;;;;;;37.00;31.33;;;;;4.86;79.82;102628.16;5129562;27;45470;-65
2023/04/03 03:15:01;;;;;;;;;34.33;30.33;;;;;4.81;80.24;102623.69;5128623;27;45362;-65
2023/04/03 03:17:26;;;;;;;;;35.00;30.33;;;;;4.86;79.83;102624.69;5138058;27;46580;-65
2023/04/03 03:19:51;;;;;;;;;37.00;34.00;;;;;4.85;79.13;102625.50;5140210;27;45360;-64
2023/04/03 03:22:17;;;;;;;;;40.67;36.00;;;;;4.79;79.40;102614.88;5134685;27;45573;-64
2023/04/03 03:24:42;;;;;;;;;46.33;36.67;;;;;4.75;79.30;102621.75;5125092;27;45453;-64
2023/04/03 03:27:07;;;;;;;;;41.33;35.67;;;;;4.80;79.22;102632.34;5138036;27;45448;-64
2023/04/03 03:29:33;;;;;;;;;35.33;34.67;;;;;4.49;79.97;102587.88;5131093;27;45483;-65
2023/04/03 03:31:58;;;;;;;;;36.33;31.67;;;;;4.82;79.70;102636.78;5139447;27;45478;-65
2023/04/03 03:34:23;;;;;;;;;37.00;34.67;;;;;4.82;79.37;102635.88;5118414;27;46069;-65
2023/04/03 03:36:49;;;;;;;;;42.67;33.00;;;;;4.73;79.23;102618.19;5134898;27;45440;-65
2023/04/03 03:39:14;;;;;;;;;32.33;31.67;;;;;4.77;79.47;102624.41;5128232;27;45586;-65
2023/04/03 03:41:40;;;;;;;;;34.33;30.00;;;;;4.82;79.18;102633.25;5115468;27;45861;-65
2023/04/03 03:44:05;;;;;;;;;43.33;33.67;;;;;4.79;79.25;102638.38;5118236;27;45429;-65
2023/04/03 03:46:30;;;;;;;;;37.00;29.67;;;;;4.68;79.15;102619.78;5120816;27;46365;-65
2023/04/03 03:48:56;;;;;;;;;40.33;33.67;;;;;4.74;79.24;102632.16;5117225;27;45329;-65
2023/04/03 03:51:21;;;;;;;;;39.00;31.00;;;;;4.66;78.95;102627.56;5118466;27;45380;-65
2023/04/03 03:53:46;;;;;;;;;37.67;31.67;;;;;4.71;78.83;102633.78;5115539;27;45370;-65
2023/04/03 03:56:12;;;;;;;;;48.00;35.33;;;;;4.68;79.02;102628.47;5118053;27;47431;-65
2023/04/03 03:58:37;;;;;;;;;29.67;27.33;;;;;4.64;78.12;102621.41;5118768;27;45459;-65
2023/04/03 04:01:05;;;;;;;;;33.00;24.67;;;;;4.59;77.57;102606.44;5119891;27;45177;-65
2023/04/03 04:03:31;;;;;;;;;33.67;29.00;;;;;4.63;77.36;102622.25;5117180;27;46652;-65
2023/04/03 04:05:56;;;;;;;;;35.33;28.00;;;;;4.41;77.49;102585.88;5118139;27;45518;-65
2023/04/03 04:08:23;;;;;;;;;28.33;26.00;;;;;4.66;77.44;102634.47;5118116;27;45308;-65
2023/04/03 04:10:48;;;;;;;;;30.00;21.33;;;;;4.55;76.69;102615.00;5118267;27;45820;-65
2023/04/03 04:13:14;;;;;;;;;23.67;21.67;;;;;4.56;76.36;102620.28;5117161;27;45384;-65
2023/04/03 04:15:40;;;;;;;;;23.00;20.33;;;;;4.59;75.85;102629.91;5117539;27;46666;-65
2023/04/03 04:18:05;;;;;;;;;28.67;24.00;;;;;4.55;75.42;102631.53;5117972;27;45330;-65
2023/04/03 04:20:30;;;;;;;;;26.00;20.67;;;;;4.50;76.01;102620.97;5116839;27;45316;-65
2023/04/03 04:22:56;;;;;;;;;29.00;23.00;;;;;4.45;76.24;102624.25;5117100;27;45477;-65
2023/04/03 04:25:21;;;;;;;;;30.00;26.33;;;;;4.45;75.90;102625.13;5117857;27;45337;-65
2023/04/03 04:27:46;;;;;;;;;28.00;21.67;;;;;4.48;75.64;102643.47;5117804;27;45523;-65
2023/04/03 04:30:13;;;;;;;;;23.33;22.67;;;;;4.35;75.60;102620.44;5117833;27;45472;-65
2023/04/03 04:32:38;;;;;;;;;30.33;25.67;;;;;4.47;75.71;102640.81;5126531;27;45490;-65
2023/04/03 04:35:04;;;;;;;;;24.67;22.00;;;;;4.40;75.82;102633.63;5121220;27;45509;-65
2023/04/03 04:37:30;;;;;;;;;26.67;23.00;;;;;4.41;75.84;102635.41;5121765;27;45399;-65
2023/04/03 04:39:55;;;;;;;;;26.67;19.33;;;;;4.41;75.87;102645.84;5121223;27;45295;-65
2023/04/03 04:42:20;;;;;;;;;19.00;17.67;;;;;4.35;75.37;102636.97;5121479;27;45388;-65
2023/04/03 04:44:46;;;;;;;;;25.33;23.67;;;;;4.29;75.80;102631.56;5119396;27;45451;-65
2023/04/03 04:47:11;;;;;;;;;27.67;24.00;;;;;4.21;75.86;102621.69;5119351;27;45445;-64
2023/04/03 04:49:36;;;;;;;;;28.00;27.67;;;;;4.17;75.29;102618.13;5138434;27;45676;-64
2023/04/03 04:52:02;;;;;;;;;21.67;21.67;;;;;4.24;75.63;102632.22;5122933;27;45496;-65
2023/04/03 04:54:27;;;;;;;;;25.67;23.33;;;;;4.18;75.90;102625.09;5119938;27;45622;-65
2023/04/03 04:56:52;;;;;;;;;19.00;17.33;;;;;3.95;75.13;102595.63;5120817;27;45354;-65
2023/04/03 04:59:18;;;;;;;;;24.00;22.00;;;;;4.12;75.77;102633.56;5121161;27;45260;-64
2023/04/03 05:01:43;;;;;;;;;28.67;21.00;;;;;4.14;75.01;102647.56;5119930;27;45391;-64
2023/04/03 05:04:09;;;;;;;;;23.00;21.67;;;;;4.14;75.42;102646.69;5118569;27;45379;-64
2023/04/03 05:06:35;;;;;;;;;21.33;19.00;;;;;4.12;75.21;102640.53;5121699;27;45362;-64
2023/04/03 05:09:01;;;;;;;;;23.33;19.33;;;;;4.12;75.62;102651.81;5106167;27;45371;-64
2023/04/03 05:11:26;;;;;;;;;22.00;19.67;;;;;4.09;75.13;102646.50;5115580;27;45451;-64
2023/04/03 05:13:52;;;;;;;;;19.00;15.67;;;;;4.07;75.93;102652.53;5118306;27;45537;-65
2023/04/03 05:16:17;;;;;;;;;20.00;17.33;;;;;3.98;75.55;102629.63;5120668;27;45264;-65
2023/04/03 05:18:43;;;;;;;;;24.33;22.33;;;;;4.01;75.46;102648.84;5118662;27;46046;-65
2023/04/03 05:21:08;;;;;;;;;25.00;22.00;;;;;3.85;74.90;102628.31;5121946;27;45542;-65
2023/04/03 05:23:33;;;;;;;;;17.67;14.67;;;;;3.79;75.02;102639.41;5120431;27;46214;-64
2023/04/03 05:25:59;;;;;;;;;29.00;20.67;;;;;3.87;75.29;102646.59;5119539;27;45259;-64
2023/04/03 05:28:24;;;;;;;;;30.67;24.67;;;;;3.91;75.41;102656.31;5119273;27;45658;-64
2023/04/03 05:30:57;;;;;;;;;18.00;16.67;;;;;3.86;75.82;102648.31;5117985;27;45425;-64
2023/04/03 05:33:23;;;;;;;;;22.00;20.67;;;;;3.79;75.76;102635.88;5120334;27;46198;-65
2023/04/03 05:35:49;;;;;;;;;24.00;23.67;;;;;3.92;75.44;102663.28;5119790;27;45252;-65
2023/04/03 05:38:15;;;;;;;;;23.00;21.33;;;;;3.84;75.57;102658.69;5119721;27;45568;-65
2023/04/03 05:40:40;;;;;;;;;32.33;26.00;;;;;3.92;75.56;102669.41;5120701;27;46021;-65
2023/04/03 05:43:06;;;;;;;;;26.67;18.00;;;;;3.87;75.24;102654.44;5117707;27;45700;-65
2023/04/03 05:45:31;;;;;;;;;23.00;23.00;;;;;3.93;75.55;102662.44;5109524;27;45442;-65
2023/04/03 05:47:56;;;;;;;;;24.33;22.00;;;;;3.95;75.34;102661.69;5116143;27;45900;-65
2023/04/03 05:50:22;;;;;;;;;24.00;20.67;;;;;4.05;74.99;102668.09;5120115;27;45395;-64
2023/04/03 05:52:49;;;;;;;;;21.33;18.67;;;;;3.99;75.34;102652.25;5118530;27;46706;-64
2023/04/03 05:55:15;;;;;;;;;26.00;23.67;;;;;4.05;74.98;102655.06;5126256;27;45268;-64
2023/04/03 05:57:40;;;;;;;;;26.00;22.00;;;;;4.18;75.18;102672.91;5127455;27;45571;-64
2023/04/03 06:00:09;;;;;;;;;26.33;19.67;;;;;4.23;74.70;102673.06;5114359;27;45472;-65
2023/04/03 06:02:35;;;;;;;;;18.67;18.67;;;;;4.25;74.43;102674.00;5111057;27;47597;-65
2023/04/03 06:05:01;;;;;;;;;21.67;18.67;;;;;4.25;74.95;102667.91;5117261;27;45390;-65
2023/04/03 06:07:28;;;;;;;;;23.67;18.67;;;;;4.36;74.22;102679.59;5118610;27;45608;-64
2023/04/03 06:09:55;;;;;;;;;24.00;22.00;;;;;4.36;73.99;102680.47;5118828;27;45499;-64
2023/04/03 06:12:21;;;;;;;;;18.67;18.67;;;;;4.39;73.20;102681.44;5116709;27;46157;-64
2023/04/03 06:14:47;;;;;;;;;26.67;23.33;;;;;4.33;73.68;102669.94;5118730;27;45483;-64
2023/04/03 06:17:13;;;;;;;;;33.67;32.33;;;;;4.39;73.61;102676.22;5114788;27;45233;-64
2023/04/03 06:19:40;;;;;;;;;21.00;18.67;;;;;4.55;73.20;102685.44;5118622;27;45575;-64
2023/04/03 06:22:06;;;;;;;;;22.67;21.00;;;;;4.82;72.43;102685.44;5115037;27;47384;-64
2023/04/03 06:24:32;;;;;;;;;27.50;24.50;;;;;4.91;71.65;102683.16;5118235;27;45926;-64
2023/04/03 06:26:58;;;;;;;;;26.33;23.33;;;;;5.31;69.78;102686.97;5118335;27;45474;-64
2023/04/03 06:29:24;;;;;;;;;20.00;18.33;;;;;5.30;69.96;102669.56;5115217;27;45236;-64
2023/04/03 06:31:50;;;;;;;;;18.33;18.33;;;;;5.26;69.29;102677.25;5116130;27;46131;-64
2023/04/03 06:34:16;;;;;;;;;23.00;22.33;;;;;5.28;69.51;102693.84;5115354;27;45560;-64
2023/04/03 06:36:42;;;;;;;;;21.67;18.67;;;;;5.29;69.32;102698.25;5118081;27;45342;-64
2023/04/03 06:39:13;;;;;;;;;23.00;20.33;;;;;5.20;69.04;102704.94;5116603;27;46968;-64
2023/04/03 06:41:38;;;;;;;;;26.67;19.33;;;;;5.15;69.60;102697.81;5118541;27;46406;-64
2023/04/03 06:44:03;;;;;;;;;22.33;20.00;;;;;5.06;68.64;102681.00;5119405;27;45351;-64
2023/04/03 06:46:29;;;;;;;;;22.33;19.67;;;;;5.13;68.86;102710.81;5119781;27;45468;-64
2023/04/03 06:48:55;;;;;;;;;19.00;17.67;;;;;5.15;68.75;102705.63;5120112;27;45309;-64
2023/04/03 06:51:26;;;;;;;;;20.33;19.33;;;;;5.21;70.12;102705.81;5119248;27;47112;-64
2023/04/03 06:53:53;;;;;;;;;20.33;18.00;;;;;5.34;69.86;102707.09;5119261;27;45341;-65
2023/04/03 06:56:19;;;;;;;;;24.33;22.67;;;;;5.40;68.46;102696.81;5119125;27;45518;-64
2023/04/03 06:58:46;;;;;;;;;29.00;24.00;;;;;6.28;68.30;102697.63;5119900;27;45583;-65
2023/04/03 07:01:13;;;;;;;;;24.33;18.67;;;;;8.80;62.56;102700.41;5118667;27;46178;-64
2023/04/03 07:03:40;;;;;;;;;18.00;18.00;;;;;9.56;57.00;102704.13;5118005;27;45415;-64
2023/04/03 07:06:06;;;;;;;;;19.00;16.33;;;;;9.60;57.24;102703.31;5114942;27;45337;-64
2023/04/03 07:08:32;;;;;;;;;19.67;16.67;;;;;9.36;55.66;102707.34;5114858;27;45314;-65
2023/04/03 07:10:58;;;;;;;;;23.33;18.33;;;;;9.67;56.63;102698.97;5119057;27;45397;-71
2023/04/03 07:13:24;;;;;;;;;14.00;14.00;;;;;9.88;55.32;102704.50;5119285;27;45463;-64
2023/04/03 07:15:50;;;;;;;;;23.00;16.00;;;;;9.67;54.61;102714.75;5119455;27;45376;-64
2023/04/03 07:18:16;;;;;;;;;14.33;14.33;;;;;9.22;54.53;102704.53;5119540;27;45290;-65
2023/04/03 07:20:42;;;;;;;;;17.33;17.00;;;;;9.92;53.65;102705.44;5119147;27;46426;-65
2023/04/03 07:23:07;;;;;;;;;15.67;14.33;;;;;10.18;54.64;102715.34;5118432;27;45476;-65
2023/04/03 07:25:33;;;;;;;;;15.67;13.33;;;;;9.94;52.61;102711.59;5119472;27;45749;-65
2023/04/03 07:27:59;;;;;;;;;14.33;14.00;;;;;10.80;52.50;102682.59;5119132;27;45283;-65
2023/04/03 07:30:25;;;;;;;;;14.00;13.00;;;;;10.70;52.98;102713.25;5118621;27;46406;-65
2023/04/03 07:32:51;;;;;;;;;14.33;13.00;;;;;10.98;52.56;102719.63;5118336;27;45407;-65
2023/04/03 07:35:17;;;;;;;;;15.00;14.67;;;;;10.97;50.35;102715.22;5119148;27;45452;-65
2023/04/03 07:37:42;;;;;;;;;18.00;14.67;;;;;10.26;51.25;102705.78;5119478;27;45232;-65
2023/04/03 07:40:08;;;;;;;;;17.00;15.00;;;;;10.04;51.82;102725.75;5118498;27;45630;-64
2023/04/03 07:42:34;;;;;;;;;14.00;10.33;;;;;9.80;52.91;102721.06;5118970;27;45487;-65
2023/04/03 07:45:00;;;;;;;;;11.67;11.67;;;;;9.49;52.94;102716.28;5119074;27;45372;-65
2023/04/03 07:47:27;;;;;;;;;13.00;11.67;;;;;9.13;52.94;102721.91;5119043;27;45694;-65
2023/04/03 07:49:53;;;;;;;;;10.67;9.33;;;;;8.79;53.71;102703.00;5118631;27;46277;-65
2023/04/03 07:52:18;;;;;;;;;13.00;10.33;;;;;8.68;55.04;102729.97;5118921;27;45380;-65
2023/04/03 07:54:43;;;;;;;;;10.67;10.67;;;;;8.43;55.05;102722.47;5118923;27;45196;-65
2023/04/03 07:57:09;;;;;;;;;10.00;9.67;;;;;8.47;55.04;102719.97;5119215;27;45345;-64
2023/04/03 07:59:34;;;;;;;;;11.33;11.00;;;;;8.38;55.02;102725.03;5118793;27;46284;-64
2023/04/03 08:02:00;;;;;;;;;11.67;11.67;;;;;8.25;55.69;102713.41;5118572;27;45371;-65
2023/04/03 08:04:25;;;;;;;;;14.00;12.00;;;;;8.39;55.95;102720.66;5118923;27;45431;-65
2023/04/03 08:06:51;;;;;;;;;13.00;9.67;;;;;8.92;54.62;102719.81;5118932;27;45435;-65
2023/04/03 08:09:17;;;;;;;;;7.00;7.00;;;;;9.45;53.77;102721.50;5117673;27;46364;-64
2023/04/03 08:11:42;;;;;;;;;8.67;8.33;;;;;10.84;50.94;102717.78;5118258;27;45463;-65
2023/04/03 08:14:10;;;;;;;;;9.33;9.33;;;;;13.63;45.36;102702.53;5118821;27;45260;-65
2023/04/03 08:16:36;;;;;;;;;10.33;10.33;;;;;14.78;43.74;102708.03;5118738;27;45523;-65
2023/04/03 08:19:01;;;;;;;;;10.00;9.00;;;;;15.71;42.83;102712.34;5118296;27;46233;-65
2023/04/03 08:21:26;;;;;;;;;7.00;6.00;;;;;15.69;38.91;102669.88;5118472;27;45334;-65
2023/04/03 08:23:52;;;;;;;;;12.00;9.67;;;;;16.02;41.74;102703.09;5118718;27;45436;-65
2023/04/03 08:26:21;;;;;;;;;10.25;8.75;;;;;15.82;39.88;102718.44;5118710;27;45287;-65
2023/04/03 08:28:47;;;;;;;;;8.67;7.00;;;;;15.73;40.39;102710.53;5118234;27;46560;-65
2023/04/03 08:31:16;;;;;;;;;7.67;7.67;;;;;15.53;42.38;102710.81;5118404;27;45251;-65
2023/04/03 08:33:42;;;;;;;;;9.00;7.75;;;;;15.76;39.27;102707.88;5118202;27;45280;-63
2023/04/03 08:36:18;;;;;;;;;5.00;5.00;;;;;15.42;39.98;102713.56;5118491;27;45584;-63
2023/04/03 08:38:43;;;;;;;;;8.25;7.00;;;;;14.45;42.96;102712.69;5118021;27;46386;-62
2023/04/03 08:41:46;;;;;;;;;7.25;7.00;;;;;14.45;40.61;102712.69;5118130;27;45282;-65
2023/04/03 08:44:24;;;;;;;;;9.33;8.00;;;;;15.71;40.99;102710.56;5118349;27;45306;-65
2023/04/03 08:47:08;;;;;;;;;10.00;10.00;;;;;16.47;38.76;102709.56;5118661;27;45262;-65
2023/04/03 08:49:40;;;;;;;;;10.33;10.33;;;;;16.80;36.93;102712.53;5118046;27;45587;-65
2023/04/03 08:52:12;;;;;;;;;8.33;8.00;;;;;17.18;39.29;102703.00;5118244;27;45367;-63
2023/04/03 08:54:50;;;;;;;;;11.33;10.33;;;;;18.19;37.20;102699.13;5118084;27;45316;-63
2023/04/03 08:57:17;;;;;;;;;7.67;7.67;;;;;18.52;35.74;102700.13;5118309;27;45360;-63
2023/04/03 08:59:42;;;;;;;;;8.33;8.33;;;;;18.07;37.00;102702.97;5117977;27;45281;-63
2023/04/03 09:02:26;;;;;;;;;9.33;9.33;;;;;18.67;35.64;102703.31;5117967;27;45496;-63
2023/04/03 09:04:52;;;;;;;;;8.67;7.00;;;;;19.45;34.17;102697.69;5118091;27;45376;-63
2023/04/03 09:07:31;;;;;;;;;6.00;6.00;;;;;18.85;34.91;102696.63;5118264;27;45405;-62
2023/04/03 09:10:00;;;;;;;;;7.67;6.33;;;;;17.69;36.03;102683.34;5117847;27;46229;-63
2023/04/03 09:12:50;;;;;;;;;9.00;8.00;;;;;18.10;35.13;102705.56;5117867;27;45299;-62
2023/04/03 09:15:20;;;;;;;;;8.00;7.00;;;;;18.13;34.61;102697.50;5117775;27;45487;-63
2023/04/03 09:18:01;;;;;;;;;5.00;5.00;;;;;17.44;35.58;102699.84;5118046;27;45419;-63
2023/04/03 09:20:51;;;;;;;;;7.67;6.00;;;;;16.79;37.12;102698.34;5120456;27;46063;-63
2023/04/03 09:23:26;;;;;;;;;12.00;11.00;;;;;16.17;36.13;102688.69;5120659;27;45430;-63
2023/04/03 09:26:00;;;;;;;;;5.00;5.00;;;;;15.70;37.18;102700.84;5121444;27;45310;-66
2023/04/03 09:28:27;;;;;;;;;7.00;7.00;;;;;15.19;37.11;102690.84;5121344;27;45558;-63
2023/04/03 09:30:53;;;;;;;;;8.00;7.67;;;;;15.11;36.91;102679.41;5121023;27;46477;-63
2023/04/03 09:33:21;;;;;;;;;10.00;9.00;;;;;15.09;37.68;102665.31;5121046;27;45285;-63
2023/04/03 09:35:48;;;;;;;;;10.33;9.00;;;;;15.31;37.56;102688.03;5120607;27;45530;-63
2023/04/03 09:38:13;;;;;;;;;11.00;9.33;;;;;15.32;36.86;102687.16;5121157;27;45359;-63
2023/04/03 09:40:40;;;;;;;;;10.67;9.33;;;;;15.52;36.96;102678.06;5120660;27;46131;-63
2023/04/03 09:43:30;;;;;;;;;5.33;5.00;;;;;16.45;36.89;102695.38;5120882;27;45173;-63
2023/04/03 09:46:17;;;;;;;;;11.00;9.67;;;;;18.53;35.52;102680.53;5121034;27;45291;-63
2023/04/03 09:48:56;;;;;;;;;8.00;5.67;;;;;20.56;30.47;102671.97;5120973;27;45433;-63
2023/04/03 09:51:27;;;;;;;;;10.67;7.67;;;;;22.22;31.38;102675.63;5120652;27;45503;-63
2023/04/03 09:53:53;;;;;;;;;11.33;9.33;;;;;23.79;31.26;102663.34;5120758;27;45329;-63
2023/04/03 09:56:21;;;;;;;;;10.00;9.00;;;;;24.90;26.97;102670.41;5120675;27;45502;-62
2023/04/03 09:59:15;;;;;;;;;8.33;7.00;;;;;25.89;27.13;102670.44;5120910;27;45312;-63
2023/04/03 10:01:57;;;;;;;;;11.67;8.33;;;;;26.61;24.47;102657.25;5116135;27;47269;-63
2023/04/03 10:04:24;;;;;;;;;10.00;7.00;;;;;27.18;23.80;102653.75;5120418;27;45337;-63
2023/04/03 10:06:52;;;;;;;;;8.33;6.00;;;;;27.94;21.90;102657.03;5120726;27;45328;-63
2023/04/03 10:09:22;;;;;;;;;11.33;8.33;;;;;28.20;25.11;102662.59;5120754;27;45166;-63
2023/04/03 10:11:57;;;;;;;;;5.33;5.00;;;;;28.73;22.22;102644.50;5120390;27;46421;-63
2023/04/03 10:14:23;;;;;;;;;6.67;6.67;;;;;28.91;20.49;102652.31;5120542;27;45353;-63
2023/04/03 10:17:13;;;;;;;;;8.00;7.00;;;;;29.09;22.26;102656.44;5120505;27;45325;-64
2023/04/03 10:19:46;;;;;;;;;10.33;8.00;;;;;28.86;20.01;102644.50;5056891;28;45429;-64
2023/04/03 10:22:27;;;;;;;;;5.33;5.33;;;;;29.08;22.99;102645.69;5056690;28;46217;-64
2023/04/03 10:25:00;;;;;;;;;8.00;8.00;;;;;28.78;19.57;102644.19;5056706;28;45299;-64
2023/04/03 10:27:46;;;;;;;;;9.33;6.67;;;;;28.75;22.49;102649.81;5056083;28;45450;-64
2023/04/03 10:30:36;;;;;;;;;8.00;6.00;;;;;28.53;19.28;102639.59;5056752;28;45409;-63
2023/04/03 10:33:13;;;;;;;;;7.00;6.00;;;;;28.45;20.53;102643.69;5056401;28;47446;-63
2023/04/03 10:35:56;;;;;;;;;6.33;5.00;;;;;28.37;21.64;102643.34;5056417;28;45382;-64
2023/04/03 10:38:36;;;;;;;;;6.33;6.00;;;;;27.85;21.88;102638.69;5056682;28;45324;-63
2023/04/03 10:41:10;;;;;;;;;5.33;5.33;;;;;27.21;22.25;102595.91;5056596;28;45408;-64
2023/04/03 10:43:44;;;;;;;;;4.00;4.00;;;;;26.41;22.43;102640.41;5056240;28;46075;-64
2023/04/03 10:46:27;;;;;;;;;5.33;3.00;;;;;25.21;22.60;102631.00;5056452;28;45349;-63
2023/04/03 10:48:55;;;;;;;;;3.33;3.00;;;;;24.37;22.54;102630.94;5056494;28;45452;-63
2023/04/03 10:51:29;;;;;;;;;4.00;3.00;;;;;23.34;22.77;102635.00;5056380;28;45405;-64
2023/04/03 10:53:57;;;;;;;;;3.67;3.67;;;;;22.44;24.72;102635.41;5055459;28;46049;-63
2023/04/03 10:56:35;;;;;;;;;4.00;4.00;;;;;21.10;23.88;102609.38;5077876;27;45414;-64
2023/04/03 10:59:27;;;;;;;;;3.00;3.00;;;;;20.45;25.96;102629.53;5119828;27;45249;-63
2023/04/03 11:01:57;;;;;;;;;5.67;4.00;;;;;19.65;25.93;102628.47;5120097;27;45426;-63
2023/04/03 11:04:29;;;;;;;;;3.00;3.00;;;;;18.77;27.37;102628.28;5119387;27;45270;-63
2023/04/03 11:07:04;;;;;;;;;5.00;5.00;;;;;17.89;27.78;102614.50;5119608;27;45413;-63
2023/04/03 11:09:37;;;;;;;;;6.00;5.00;;;;;17.23;28.45;102616.81;5119831;27;45423;-63
2023/04/03 11:12:19;;;;;;;;;5.33;5.00;;;;;16.45;29.54;102608.50;5119777;27;45674;-63
2023/04/03 11:14:47;;;;;;;;;4.33;4.33;;;;;15.87;29.72;102614.78;5119416;27;45507;-63
2023/04/03 11:17:20;;;;;;;;;4.00;4.00;;;;;15.40;30.82;102607.41;5119279;27;45348;-63
2023/04/03 11:19:49;;;;;;;;;5.00;5.00;;;;;15.12;31.21;102609.53;5119119;27;45422;-63
2023/04/03 11:22:26;;;;;;;;;6.00;4.33;;;;;14.78;32.03;102600.19;5119805;27;45321;-63
2023/04/03 11:25:02;;;;;;;;;4.00;4.00;;;;;14.52;32.47;102605.72;5119096;27;47015;-63